sensor_id;sensor_type;location;lat;lon;timestamp;P1;durP1;ratioP1;P2;durP2;ratioP2
15716;SDS011;7960;50.908;4.204;2023-08-24T00:01:22;9.00;;;7.20;;
15716;SDS011;7960;50.908;4.204;2023-08-24T00:03:51;11.77;;;7.40;;
15716;SDS011;7960;50.908;4.204;2023-08-24T00:06:18;9.83;;;7.10;;
15716;SDS011;7960;50.908;4.204;2023-08-24T00:08:44;11.13;;;7.60;;
15716;SDS011;7960;50.908;4.204;2023-08-24T00:11:12;11.33;;;7.70;;
15716;SDS011;7960;50.908;4.204;2023-08-24T00:13:40;9.67;;;7.17;;
15716;SDS011;7960;50.908;4.204;2023-08-24T00:16:11;9.80;;;7.60;;
15716;SDS011;7960;50.908;4.204;2023-08-24T00:18:38;12.47;;;7.80;;
15716;SDS011;7960;50.908;4.204;2023-08-24T00:21:07;9.23;;;7.07;;
15716;SDS011;7960;50.908;4.204;2023-08-24T00:23:34;10.13;;;7.37;;
15716;SDS011;7960;50.908;4.204;2023-08-24T00:26:01;9.97;;;7.80;;
15716;SDS011;7960;50.908;4.204;2023-08-24T00:28:28;8.97;;;7.77;;
15716;SDS011;7960;50.908;4.204;2023-08-24T00:30:55;10.67;;;7.40;;
15716;SDS011;7960;50.908;4.204;2023-08-24T00:33:22;8.63;;;7.73;;
15716;SDS011;7960;50.908;4.204;2023-08-24T00:35:49;10.10;;;7.43;;
15716;SDS011;7960;50.908;4.204;2023-08-24T00:38:17;10.43;;;8.00;;
15716;SDS011;7960;50.908;4.204;2023-08-24T00:40:44;12.53;;;7.30;;
15716;SDS011;7960;50.908;4.204;2023-08-24T00:43:11;11.17;;;7.87;;
15716;SDS011;7960;50.908;4.204;2023-08-24T00:45:39;8.50;;;7.57;;
15716;SDS011;7960;50.908;4.204;2023-08-24T00:48:06;11.17;;;7.60;;
15716;SDS011;7960;50.908;4.204;2023-08-24T00:50:34;10.67;;;7.47;;
15716;SDS011;7960;50.908;4.204;2023-08-24T00:53:01;11.13;;;7.10;;
15716;SDS011;7960;50.908;4.204;2023-08-24T00:55:32;10.37;;;7.73;;
15716;SDS011;7960;50.908;4.204;2023-08-24T00:58:00;9.17;;;7.47;;
15716;SDS011;7960;50.908;4.204;2023-08-24T01:00:28;12.90;;;6.93;;
15716;SDS011;7960;50.908;4.204;2023-08-24T01:02:55;8.30;;;7.40;;
15716;SDS011;7960;50.908;4.204;2023-08-24T01:05:22;9.23;;;7.47;;
15716;SDS011;7960;50.908;4.204;2023-08-24T01:07:49;12.93;;;7.50;;
15716;SDS011;7960;50.908;4.204;2023-08-24T01:10:16;13.63;;;7.80;;
15716;SDS011;7960;50.908;4.204;2023-08-24T01:12:52;10.27;;;7.93;;
15716;SDS011;7960;50.908;4.204;2023-08-24T01:15:28;13.33;;;7.40;;
15716;SDS011;7960;50.908;4.204;2023-08-24T01:18:00;9.63;;;8.00;;
15716;SDS011;7960;50.908;4.204;2023-08-24T01:20:32;10.33;;;7.77;;
15716;SDS011;7960;50.908;4.204;2023-08-24T01:23:04;12.13;;;7.73;;
15716;SDS011;7960;50.908;4.204;2023-08-24T01:25:40;9.73;;;7.60;;
15716;SDS011;7960;50.908;4.204;2023-08-24T01:28:19;11.40;;;7.57;;
15716;SDS011;7960;50.908;4.204;2023-08-24T01:30:47;9.97;;;7.20;;
15716;SDS011;7960;50.908;4.204;2023-08-24T01:33:14;11.20;;;7.60;;
15716;SDS011;7960;50.908;4.204;2023-08-24T01:35:41;9.80;;;7.40;;
15716;SDS011;7960;50.908;4.204;2023-08-24T01:38:08;9.87;;;7.90;;
15716;SDS011;7960;50.908;4.204;2023-08-24T01:40:41;9.43;;;7.50;;
15716;SDS011;7960;50.908;4.204;2023-08-24T01:43:14;9.20;;;7.67;;
15716;SDS011;7960;50.908;4.204;2023-08-24T01:45:46;8.47;;;7.53;;
15716;SDS011;7960;50.908;4.204;2023-08-24T01:48:14;10.87;;;7.80;;
15716;SDS011;7960;50.908;4.204;2023-08-24T01:50:42;9.43;;;7.90;;
15716;SDS011;7960;50.908;4.204;2023-08-24T01:53:10;11.20;;;8.27;;
15716;SDS011;7960;50.908;4.204;2023-08-24T01:55:37;13.47;;;9.00;;
15716;SDS011;7960;50.908;4.204;2023-08-24T01:58:05;15.03;;;9.10;;
15716;SDS011;7960;50.908;4.204;2023-08-24T02:00:32;14.77;;;9.03;;
15716;SDS011;7960;50.908;4.204;2023-08-24T02:03:00;13.67;;;9.07;;
15716;SDS011;7960;50.908;4.204;2023-08-24T02:05:27;10.30;;;9.20;;
15716;SDS011;7960;50.908;4.204;2023-08-24T02:07:54;16.40;;;9.77;;
15716;SDS011;7960;50.908;4.204;2023-08-24T02:10:22;13.20;;;9.53;;
15716;SDS011;7960;50.908;4.204;2023-08-24T02:12:49;12.73;;;9.83;;
15716;SDS011;7960;50.908;4.204;2023-08-24T02:15:16;15.00;;;10.60;;
15716;SDS011;7960;50.908;4.204;2023-08-24T02:17:44;14.23;;;10.37;;
15716;SDS011;7960;50.908;4.204;2023-08-24T02:20:12;14.97;;;10.37;;
15716;SDS011;7960;50.908;4.204;2023-08-24T02:22:39;11.20;;;10.03;;
15716;SDS011;7960;50.908;4.204;2023-08-24T02:25:06;13.53;;;10.40;;
15716;SDS011;7960;50.908;4.204;2023-08-24T02:27:35;13.63;;;10.53;;
15716;SDS011;7960;50.908;4.204;2023-08-24T02:30:02;15.00;;;9.80;;
15716;SDS011;7960;50.908;4.204;2023-08-24T02:32:30;10.90;;;9.40;;
15716;SDS011;7960;50.908;4.204;2023-08-24T02:34:57;11.93;;;9.20;;
15716;SDS011;7960;50.908;4.204;2023-08-24T02:37:26;12.03;;;9.60;;
15716;SDS011;7960;50.908;4.204;2023-08-24T02:39:53;16.00;;;10.80;;
15716;SDS011;7960;50.908;4.204;2023-08-24T02:42:20;11.17;;;9.23;;
15716;SDS011;7960;50.908;4.204;2023-08-24T02:44:47;13.70;;;9.90;;
15716;SDS011;7960;50.908;4.204;2023-08-24T02:47:14;14.17;;;10.30;;
15716;SDS011;7960;50.908;4.204;2023-08-24T02:49:41;12.83;;;9.97;;
15716;SDS011;7960;50.908;4.204;2023-08-24T02:52:08;15.80;;;10.90;;
15716;SDS011;7960;50.908;4.204;2023-08-24T02:54:36;11.40;;;10.20;;
15716;SDS011;7960;50.908;4.204;2023-08-24T02:57:03;13.57;;;10.83;;
15716;SDS011;7960;50.908;4.204;2023-08-24T02:59:30;13.67;;;10.63;;
15716;SDS011;7960;50.908;4.204;2023-08-24T03:01:57;13.80;;;10.97;;
15716;SDS011;7960;50.908;4.204;2023-08-24T03:04:24;11.70;;;10.20;;
15716;SDS011;7960;50.908;4.204;2023-08-24T03:06:51;14.77;;;10.93;;
15716;SDS011;7960;50.908;4.204;2023-08-24T03:09:18;11.40;;;9.43;;
15716;SDS011;7960;50.908;4.204;2023-08-24T03:11:46;16.30;;;11.07;;
15716;SDS011;7960;50.908;4.204;2023-08-24T03:14:13;12.07;;;9.43;;
15716;SDS011;7960;50.908;4.204;2023-08-24T03:16:40;14.17;;;9.97;;
15716;SDS011;7960;50.908;4.204;2023-08-24T03:19:07;13.40;;;10.40;;
15716;SDS011;7960;50.908;4.204;2023-08-24T03:21:34;12.30;;;9.70;;
15716;SDS011;7960;50.908;4.204;2023-08-24T03:24:02;13.03;;;10.37;;
15716;SDS011;7960;50.908;4.204;2023-08-24T03:26:30;15.40;;;10.47;;
15716;SDS011;7960;50.908;4.204;2023-08-24T03:28:58;11.90;;;10.00;;
15716;SDS011;7960;50.908;4.204;2023-08-24T03:31:25;14.07;;;10.50;;
15716;SDS011;7960;50.908;4.204;2023-08-24T03:33:52;13.87;;;11.10;;
15716;SDS011;7960;50.908;4.204;2023-08-24T03:36:19;12.47;;;10.93;;
15716;SDS011;7960;50.908;4.204;2023-08-24T03:38:46;18.23;;;11.00;;
15716;SDS011;7960;50.908;4.204;2023-08-24T03:41:13;12.47;;;10.13;;
15716;SDS011;7960;50.908;4.204;2023-08-24T03:43:40;14.10;;;10.27;;
15716;SDS011;7960;50.908;4.204;2023-08-24T03:46:08;19.20;;;11.67;;
15716;SDS011;7960;50.908;4.204;2023-08-24T03:48:35;16.57;;;11.40;;
15716;SDS011;7960;50.908;4.204;2023-08-24T03:51:02;19.47;;;11.03;;
15716;SDS011;7960;50.908;4.204;2023-08-24T03:53:29;12.37;;;10.53;;
15716;SDS011;7960;50.908;4.204;2023-08-24T03:55:57;18.90;;;11.03;;
15716;SDS011;7960;50.908;4.204;2023-08-24T03:58:24;17.57;;;11.27;;
15716;SDS011;7960;50.908;4.204;2023-08-24T04:00:51;10.87;;;9.57;;
15716;SDS011;7960;50.908;4.204;2023-08-24T04:03:20;14.83;;;10.20;;
15716;SDS011;7960;50.908;4.204;2023-08-24T04:05:47;11.00;;;9.90;;
15716;SDS011;7960;50.908;4.204;2023-08-24T04:08:14;13.70;;;9.97;;
15716;SDS011;7960;50.908;4.204;2023-08-24T04:10:43;16.60;;;11.27;;
15716;SDS011;7960;50.908;4.204;2023-08-24T04:13:10;13.93;;;10.17;;
15716;SDS011;7960;50.908;4.204;2023-08-24T04:15:37;15.43;;;10.90;;
15716;SDS011;7960;50.908;4.204;2023-08-24T04:18:05;21.27;;;17.30;;
15716;SDS011;7960;50.908;4.204;2023-08-24T04:20:33;13.43;;;11.53;;
15716;SDS011;7960;50.908;4.204;2023-08-24T04:23:01;15.47;;;11.10;;
15716;SDS011;7960;50.908;4.204;2023-08-24T04:25:28;16.73;;;10.70;;
15716;SDS011;7960;50.908;4.204;2023-08-24T04:27:55;20.03;;;11.80;;
15716;SDS011;7960;50.908;4.204;2023-08-24T04:30:22;19.03;;;11.57;;
15716;SDS011;7960;50.908;4.204;2023-08-24T04:32:49;16.80;;;10.77;;
15716;SDS011;7960;50.908;4.204;2023-08-24T04:35:17;16.90;;;11.10;;
15716;SDS011;7960;50.908;4.204;2023-08-24T04:37:45;15.60;;;9.97;;
15716;SDS011;7960;50.908;4.204;2023-08-24T04:40:12;16.13;;;10.57;;
15716;SDS011;7960;50.908;4.204;2023-08-24T04:42:39;12.57;;;9.63;;
15716;SDS011;7960;50.908;4.204;2023-08-24T04:45:06;12.93;;;9.83;;
15716;SDS011;7960;50.908;4.204;2023-08-24T04:47:34;10.77;;;9.50;;
15716;SDS011;7960;50.908;4.204;2023-08-24T04:50:01;11.90;;;8.97;;
15716;SDS011;7960;50.908;4.204;2023-08-24T04:52:29;12.80;;;9.03;;
15716;SDS011;7960;50.908;4.204;2023-08-24T04:54:57;12.40;;;8.17;;
15716;SDS011;7960;50.908;4.204;2023-08-24T04:57:24;16.50;;;9.47;;
15716;SDS011;7960;50.908;4.204;2023-08-24T04:59:51;10.90;;;8.73;;
15716;SDS011;7960;50.908;4.204;2023-08-24T05:02:18;11.27;;;8.73;;
15716;SDS011;7960;50.908;4.204;2023-08-24T05:04:45;13.83;;;8.20;;
15716;SDS011;7960;50.908;4.204;2023-08-24T05:07:13;9.13;;;7.30;;
15716;SDS011;7960;50.908;4.204;2023-08-24T05:09:40;13.17;;;7.97;;
15716;SDS011;7960;50.908;4.204;2023-08-24T05:12:09;11.40;;;8.10;;
15716;SDS011;7960;50.908;4.204;2023-08-24T05:14:36;9.63;;;8.13;;
15716;SDS011;7960;50.908;4.204;2023-08-24T05:17:02;11.57;;;8.00;;
15716;SDS011;7960;50.908;4.204;2023-08-24T05:19:30;9.93;;;8.77;;
15716;SDS011;7960;50.908;4.204;2023-08-24T05:21:57;18.40;;;11.60;;
15716;SDS011;7960;50.908;4.204;2023-08-24T05:24:23;12.20;;;9.30;;
15716;SDS011;7960;50.908;4.204;2023-08-24T05:26:50;12.20;;;9.57;;
15716;SDS011;7960;50.908;4.204;2023-08-24T05:29:19;14.53;;;9.73;;
15716;SDS011;7960;50.908;4.204;2023-08-24T05:31:46;16.17;;;9.43;;
15716;SDS011;7960;50.908;4.204;2023-08-24T05:34:13;10.33;;;9.10;;
15716;SDS011;7960;50.908;4.204;2023-08-24T05:36:40;14.03;;;10.93;;
15716;SDS011;7960;50.908;4.204;2023-08-24T05:39:07;16.27;;;10.27;;
15716;SDS011;7960;50.908;4.204;2023-08-24T05:41:34;14.57;;;10.93;;
15716;SDS011;7960;50.908;4.204;2023-08-24T05:44:01;17.70;;;12.13;;
15716;SDS011;7960;50.908;4.204;2023-08-24T05:46:30;13.90;;;10.57;;
15716;SDS011;7960;50.908;4.204;2023-08-24T05:48:57;16.17;;;12.07;;
15716;SDS011;7960;50.908;4.204;2023-08-24T05:51:25;13.47;;;11.67;;
15716;SDS011;7960;50.908;4.204;2023-08-24T05:53:52;14.10;;;12.60;;
15716;SDS011;7960;50.908;4.204;2023-08-24T05:56:20;19.23;;;14.17;;
15716;SDS011;7960;50.908;4.204;2023-08-24T05:58:48;15.00;;;13.43;;
15716;SDS011;7960;50.908;4.204;2023-08-24T06:01:15;18.60;;;14.33;;
15716;SDS011;7960;50.908;4.204;2023-08-24T06:03:43;15.00;;;13.40;;
15716;SDS011;7960;50.908;4.204;2023-08-24T06:06:10;19.73;;;13.80;;
15716;SDS011;7960;50.908;4.204;2023-08-24T06:08:37;16.27;;;13.17;;
15716;SDS011;7960;50.908;4.204;2023-08-24T06:11:04;14.40;;;12.87;;
15716;SDS011;7960;50.908;4.204;2023-08-24T06:13:32;17.20;;;13.03;;
15716;SDS011;7960;50.908;4.204;2023-08-24T06:15:59;18.33;;;12.90;;
15716;SDS011;7960;50.908;4.204;2023-08-24T06:18:26;18.27;;;12.83;;
15716;SDS011;7960;50.908;4.204;2023-08-24T06:20:55;14.60;;;12.47;;
15716;SDS011;7960;50.908;4.204;2023-08-24T06:23:22;16.17;;;12.47;;
15716;SDS011;7960;50.908;4.204;2023-08-24T06:25:49;16.90;;;12.50;;
15716;SDS011;7960;50.908;4.204;2023-08-24T06:28:16;20.47;;;13.03;;
15716;SDS011;7960;50.908;4.204;2023-08-24T06:30:43;18.67;;;12.40;;
15716;SDS011;7960;50.908;4.204;2023-08-24T06:33:11;15.30;;;13.40;;
15716;SDS011;7960;50.908;4.204;2023-08-24T06:35:38;13.07;;;11.63;;
15716;SDS011;7960;50.908;4.204;2023-08-24T06:38:09;14.40;;;12.30;;
15716;SDS011;7960;50.908;4.204;2023-08-24T06:40:37;17.80;;;11.93;;
15716;SDS011;7960;50.908;4.204;2023-08-24T06:43:05;15.43;;;11.90;;
15716;SDS011;7960;50.908;4.204;2023-08-24T06:45:32;14.60;;;11.17;;
15716;SDS011;7960;50.908;4.204;2023-08-24T06:48:01;14.13;;;12.43;;
15716;SDS011;7960;50.908;4.204;2023-08-24T06:50:33;12.80;;;11.50;;
15716;SDS011;7960;50.908;4.204;2023-08-24T06:53:01;14.70;;;13.20;;
15716;SDS011;7960;50.908;4.204;2023-08-24T06:55:31;16.13;;;12.27;;
15716;SDS011;7960;50.908;4.204;2023-08-24T06:58:03;14.83;;;12.50;;
15716;SDS011;7960;50.908;4.204;2023-08-24T07:00:33;16.90;;;13.57;;
15716;SDS011;7960;50.908;4.204;2023-08-24T07:03:00;16.30;;;12.37;;
15716;SDS011;7960;50.908;4.204;2023-08-24T07:05:27;15.23;;;12.23;;
15716;SDS011;7960;50.908;4.204;2023-08-24T07:07:55;13.53;;;12.23;;
15716;SDS011;7960;50.908;4.204;2023-08-24T07:10:22;15.03;;;11.47;;
15716;SDS011;7960;50.908;4.204;2023-08-24T07:12:51;14.67;;;11.40;;
15716;SDS011;7960;50.908;4.204;2023-08-24T07:15:18;14.37;;;12.03;;
15716;SDS011;7960;50.908;4.204;2023-08-24T07:17:45;16.33;;;11.67;;
15716;SDS011;7960;50.908;4.204;2023-08-24T07:20:12;13.47;;;11.53;;
15716;SDS011;7960;50.908;4.204;2023-08-24T07:22:39;18.90;;;12.73;;
15716;SDS011;7960;50.908;4.204;2023-08-24T07:25:18;20.43;;;11.70;;
15716;SDS011;7960;50.908;4.204;2023-08-24T07:27:46;16.27;;;12.67;;
15716;SDS011;7960;50.908;4.204;2023-08-24T07:30:15;13.03;;;11.63;;
15716;SDS011;7960;50.908;4.204;2023-08-24T07:32:42;16.43;;;11.93;;
15716;SDS011;7960;50.908;4.204;2023-08-24T07:35:09;15.37;;;12.27;;
15716;SDS011;7960;50.908;4.204;2023-08-24T07:37:39;18.00;;;12.53;;
15716;SDS011;7960;50.908;4.204;2023-08-24T07:40:06;14.77;;;12.50;;
15716;SDS011;7960;50.908;4.204;2023-08-24T07:42:42;15.67;;;13.20;;
15716;SDS011;7960;50.908;4.204;2023-08-24T07:45:10;20.83;;;12.63;;
15716;SDS011;7960;50.908;4.204;2023-08-24T07:47:40;16.57;;;12.10;;
15716;SDS011;7960;50.908;4.204;2023-08-24T07:50:07;14.00;;;11.50;;
15716;SDS011;7960;50.908;4.204;2023-08-24T07:52:36;17.07;;;12.43;;
15716;SDS011;7960;50.908;4.204;2023-08-24T07:55:04;15.53;;;12.57;;
15716;SDS011;7960;50.908;4.204;2023-08-24T07:57:32;22.53;;;12.40;;
15716;SDS011;7960;50.908;4.204;2023-08-24T07:59:59;14.40;;;12.23;;
15716;SDS011;7960;50.908;4.204;2023-08-24T08:02:27;14.50;;;12.13;;
15716;SDS011;7960;50.908;4.204;2023-08-24T08:04:57;14.30;;;11.73;;
15716;SDS011;7960;50.908;4.204;2023-08-24T08:07:24;14.00;;;11.90;;
15716;SDS011;7960;50.908;4.204;2023-08-24T08:09:51;18.77;;;15.03;;
15716;SDS011;7960;50.908;4.204;2023-08-24T08:12:18;17.20;;;13.47;;
15716;SDS011;7960;50.908;4.204;2023-08-24T08:14:45;15.30;;;13.13;;
15716;SDS011;7960;50.908;4.204;2023-08-24T08:17:12;14.43;;;12.93;;
15716;SDS011;7960;50.908;4.204;2023-08-24T08:19:39;18.10;;;12.57;;
15716;SDS011;7960;50.908;4.204;2023-08-24T08:22:08;16.53;;;13.90;;
15716;SDS011;7960;50.908;4.204;2023-08-24T08:24:35;16.23;;;13.70;;
15716;SDS011;7960;50.908;4.204;2023-08-24T08:27:02;16.80;;;13.03;;
15716;SDS011;7960;50.908;4.204;2023-08-24T08:33:38;14.33;;;12.47;;
15716;SDS011;7960;50.908;4.204;2023-08-24T08:36:05;16.03;;;12.67;;
15716;SDS011;7960;50.908;4.204;2023-08-24T08:38:32;20.20;;;12.80;;
15716;SDS011;7960;50.908;4.204;2023-08-24T08:41:01;24.63;;;14.70;;
15716;SDS011;7960;50.908;4.204;2023-08-24T08:43:29;15.77;;;13.77;;
15716;SDS011;7960;50.908;4.204;2023-08-24T08:45:57;19.23;;;12.83;;
15716;SDS011;7960;50.908;4.204;2023-08-24T08:48:25;16.40;;;13.07;;
15716;SDS011;7960;50.908;4.204;2023-08-24T08:50:55;16.27;;;12.87;;
15716;SDS011;7960;50.908;4.204;2023-08-24T08:53:26;16.43;;;13.07;;
15716;SDS011;7960;50.908;4.204;2023-08-24T08:55:54;16.17;;;12.80;;
15716;SDS011;7960;50.908;4.204;2023-08-24T08:58:22;15.73;;;12.70;;
15716;SDS011;7960;50.908;4.204;2023-08-24T09:00:51;16.77;;;12.83;;
15716;SDS011;7960;50.908;4.204;2023-08-24T09:03:19;36.77;;;14.50;;
15716;SDS011;7960;50.908;4.204;2023-08-24T09:05:46;51.67;;;14.73;;
15716;SDS011;7960;50.908;4.204;2023-08-24T09:08:15;27.23;;;13.87;;
15716;SDS011;7960;50.908;4.204;2023-08-24T09:10:43;18.20;;;13.53;;
15716;SDS011;7960;50.908;4.204;2023-08-24T09:13:10;32.77;;;13.53;;
15716;SDS011;7960;50.908;4.204;2023-08-24T09:15:37;19.10;;;12.07;;
15716;SDS011;7960;50.908;4.204;2023-08-24T09:18:04;32.50;;;12.57;;
15716;SDS011;7960;50.908;4.204;2023-08-24T09:20:31;69.20;;;15.43;;
15716;SDS011;7960;50.908;4.204;2023-08-24T09:22:59;22.13;;;12.83;;
15716;SDS011;7960;50.908;4.204;2023-08-24T09:25:28;15.00;;;13.10;;
15716;SDS011;7960;50.908;4.204;2023-08-24T09:27:58;19.80;;;13.67;;
15716;SDS011;7960;50.908;4.204;2023-08-24T09:30:28;15.70;;;13.13;;
15716;SDS011;7960;50.908;4.204;2023-08-24T09:33:00;17.73;;;12.70;;
15716;SDS011;7960;50.908;4.204;2023-08-24T09:35:28;13.80;;;11.37;;
15716;SDS011;7960;50.908;4.204;2023-08-24T09:37:55;12.20;;;10.93;;
15716;SDS011;7960;50.908;4.204;2023-08-24T09:40:23;15.03;;;11.00;;
15716;SDS011;7960;50.908;4.204;2023-08-24T09:42:53;14.40;;;10.70;;
15716;SDS011;7960;50.908;4.204;2023-08-24T09:45:20;12.07;;;10.03;;
15716;SDS011;7960;50.908;4.204;2023-08-24T09:47:49;12.70;;;9.77;;
15716;SDS011;7960;50.908;4.204;2023-08-24T09:50:17;11.43;;;10.20;;
15716;SDS011;7960;50.908;4.204;2023-08-24T09:52:44;12.90;;;9.77;;
15716;SDS011;7960;50.908;4.204;2023-08-24T09:55:15;12.13;;;9.50;;
15716;SDS011;7960;50.908;4.204;2023-08-24T09:57:48;16.03;;;9.00;;
15716;SDS011;7960;50.908;4.204;2023-08-24T10:00:20;10.50;;;9.07;;
15716;SDS011;7960;50.908;4.204;2023-08-24T10:02:50;12.87;;;9.60;;
15716;SDS011;7960;50.908;4.204;2023-08-24T10:05:19;12.83;;;8.93;;
15716;SDS011;7960;50.908;4.204;2023-08-24T10:07:49;10.17;;;8.27;;
15716;SDS011;7960;50.908;4.204;2023-08-24T10:10:18;9.77;;;8.33;;
15716;SDS011;7960;50.908;4.204;2023-08-24T10:12:47;11.83;;;8.73;;
15716;SDS011;7960;50.908;4.204;2023-08-24T10:15:17;11.67;;;7.77;;
15716;SDS011;7960;50.908;4.204;2023-08-24T10:17:47;10.33;;;7.90;;
15716;SDS011;7960;50.908;4.204;2023-08-24T10:20:18;14.03;;;9.57;;
15716;SDS011;7960;50.908;4.204;2023-08-24T10:34:22;11.10;;;8.83;;
15716;SDS011;7960;50.908;4.204;2023-08-24T10:36:50;9.17;;;8.27;;
15716;SDS011;7960;50.908;4.204;2023-08-24T10:39:18;9.57;;;8.13;;
15716;SDS011;7960;50.908;4.204;2023-08-24T10:41:53;9.33;;;8.33;;
15716;SDS011;7960;50.908;4.204;2023-08-24T10:44:21;10.97;;;8.03;;
15716;SDS011;7960;50.908;4.204;2023-08-24T10:47:05;9.23;;;7.97;;
15716;SDS011;7960;50.908;4.204;2023-08-24T10:49:33;13.47;;;8.70;;
15716;SDS011;7960;50.908;4.204;2023-08-24T10:54:42;10.20;;;8.37;;
15716;SDS011;7960;50.908;4.204;2023-08-24T10:57:11;11.90;;;8.50;;
15716;SDS011;7960;50.908;4.204;2023-08-24T10:59:44;10.97;;;8.47;;
15716;SDS011;7960;50.908;4.204;2023-08-24T11:02:17;11.00;;;8.67;;
15716;SDS011;7960;50.908;4.204;2023-08-24T11:05:06;10.17;;;9.17;;
15716;SDS011;7960;50.908;4.204;2023-08-24T11:07:34;10.27;;;8.07;;
15716;SDS011;7960;50.908;4.204;2023-08-24T11:10:10;10.53;;;9.07;;
15716;SDS011;7960;50.908;4.204;2023-08-24T11:15:30;9.60;;;8.70;;
15716;SDS011;7960;50.908;4.204;2023-08-24T11:18:13;10.70;;;8.00;;
15716;SDS011;7960;50.908;4.204;2023-08-24T11:20:50;10.10;;;7.97;;
15716;SDS011;7960;50.908;4.204;2023-08-24T11:23:18;11.43;;;8.13;;
15716;SDS011;7960;50.908;4.204;2023-08-24T11:25:46;15.40;;;9.00;;
15716;SDS011;7960;50.908;4.204;2023-08-24T11:28:17;9.97;;;7.80;;
15716;SDS011;7960;50.908;4.204;2023-08-24T11:30:45;8.33;;;7.53;;
15716;SDS011;7960;50.908;4.204;2023-08-24T11:33:13;11.73;;;7.60;;
15716;SDS011;7960;50.908;4.204;2023-08-24T11:35:43;9.93;;;8.03;;
15716;SDS011;7960;50.908;4.204;2023-08-24T11:38:13;12.23;;;8.33;;
15716;SDS011;7960;50.908;4.204;2023-08-24T11:40:39;22.23;;;9.90;;
15716;SDS011;7960;50.908;4.204;2023-08-24T11:43:07;13.30;;;8.63;;
15716;SDS011;7960;50.908;4.204;2023-08-24T11:45:35;11.00;;;7.97;;
15716;SDS011;7960;50.908;4.204;2023-08-24T11:48:06;9.03;;;7.53;;
15716;SDS011;7960;50.908;4.204;2023-08-24T11:50:34;26.33;;;9.60;;
15716;SDS011;7960;50.908;4.204;2023-08-24T11:53:05;14.67;;;8.23;;
15716;SDS011;7960;50.908;4.204;2023-08-24T11:55:36;9.67;;;8.13;;
15716;SDS011;7960;50.908;4.204;2023-08-24T11:58:13;9.40;;;8.13;;
15716;SDS011;7960;50.908;4.204;2023-08-24T12:00:41;11.33;;;9.27;;
15716;SDS011;7960;50.908;4.204;2023-08-24T12:03:08;10.70;;;8.67;;
15716;SDS011;7960;50.908;4.204;2023-08-24T12:05:35;11.40;;;9.10;;
15716;SDS011;7960;50.908;4.204;2023-08-24T12:08:02;11.27;;;9.40;;
15716;SDS011;7960;50.908;4.204;2023-08-24T12:10:29;10.93;;;9.70;;
15716;SDS011;7960;50.908;4.204;2023-08-24T12:13:05;10.57;;;9.43;;
15716;SDS011;7960;50.908;4.204;2023-08-24T12:15:33;11.23;;;9.87;;
15716;SDS011;7960;50.908;4.204;2023-08-24T12:18:06;11.53;;;9.40;;
15716;SDS011;7960;50.908;4.204;2023-08-24T12:20:34;14.20;;;10.80;;
15716;SDS011;7960;50.908;4.204;2023-08-24T12:23:01;11.30;;;10.20;;
15716;SDS011;7960;50.908;4.204;2023-08-24T12:25:28;10.67;;;9.17;;
15716;SDS011;7960;50.908;4.204;2023-08-24T12:28:08;11.80;;;10.70;;
15716;SDS011;7960;50.908;4.204;2023-08-24T12:30:43;11.47;;;10.27;;
15716;SDS011;7960;50.908;4.204;2023-08-24T12:33:20;11.47;;;10.10;;
15716;SDS011;7960;50.908;4.204;2023-08-24T12:35:51;11.63;;;10.47;;
15716;SDS011;7960;50.908;4.204;2023-08-24T12:38:18;10.60;;;9.50;;
15716;SDS011;7960;50.908;4.204;2023-08-24T12:40:45;11.37;;;9.30;;
15716;SDS011;7960;50.908;4.204;2023-08-24T12:43:13;10.73;;;9.63;;
15716;SDS011;7960;50.908;4.204;2023-08-24T12:45:40;10.30;;;9.30;;
15716;SDS011;7960;50.908;4.204;2023-08-24T12:48:08;12.47;;;9.43;;
15716;SDS011;7960;50.908;4.204;2023-08-24T12:50:37;11.40;;;9.03;;
15716;SDS011;7960;50.908;4.204;2023-08-24T12:53:04;13.17;;;8.90;;
15716;SDS011;7960;50.908;4.204;2023-08-24T12:55:32;11.87;;;7.67;;
15716;SDS011;7960;50.908;4.204;2023-08-24T12:57:59;8.17;;;7.23;;
15716;SDS011;7960;50.908;4.204;2023-08-24T13:00:28;11.07;;;7.17;;
15716;SDS011;7960;50.908;4.204;2023-08-24T13:02:55;9.57;;;6.53;;
15716;SDS011;7960;50.908;4.204;2023-08-24T13:05:22;10.87;;;6.00;;
15716;SDS011;7960;50.908;4.204;2023-08-24T13:07:49;12.20;;;6.47;;
15716;SDS011;7960;50.908;4.204;2023-08-24T13:10:17;10.17;;;5.83;;
15716;SDS011;7960;50.908;4.204;2023-08-24T13:12:44;12.13;;;5.97;;
15716;SDS011;7960;50.908;4.204;2023-08-24T13:15:11;8.13;;;4.93;;
15716;SDS011;7960;50.908;4.204;2023-08-24T13:17:39;8.07;;;5.40;;
15716;SDS011;7960;50.908;4.204;2023-08-24T13:20:06;6.07;;;5.40;;
15716;SDS011;7960;50.908;4.204;2023-08-24T13:22:34;8.57;;;5.00;;
15716;SDS011;7960;50.908;4.204;2023-08-24T13:25:01;11.23;;;5.33;;
15716;SDS011;7960;50.908;4.204;2023-08-24T13:27:28;7.07;;;4.87;;
15716;SDS011;7960;50.908;4.204;2023-08-24T13:29:56;9.60;;;4.77;;
15716;SDS011;7960;50.908;4.204;2023-08-24T13:32:26;11.07;;;4.70;;
15716;SDS011;7960;50.908;4.204;2023-08-24T13:34:54;5.47;;;4.30;;
15716;SDS011;7960;50.908;4.204;2023-08-24T13:37:22;5.73;;;4.20;;
15716;SDS011;7960;50.908;4.204;2023-08-24T13:39:49;5.67;;;4.20;;
15716;SDS011;7960;50.908;4.204;2023-08-24T13:42:17;6.87;;;4.17;;
15716;SDS011;7960;50.908;4.204;2023-08-24T13:44:44;7.00;;;4.47;;
15716;SDS011;7960;50.908;4.204;2023-08-24T13:47:11;6.57;;;3.90;;
15716;SDS011;7960;50.908;4.204;2023-08-24T13:49:38;7.60;;;4.50;;
15716;SDS011;7960;50.908;4.204;2023-08-24T13:52:07;7.53;;;3.83;;
15716;SDS011;7960;50.908;4.204;2023-08-24T13:54:34;6.03;;;4.10;;
15716;SDS011;7960;50.908;4.204;2023-08-24T13:57:01;12.77;;;4.33;;
15716;SDS011;7960;50.908;4.204;2023-08-24T13:59:28;11.53;;;4.33;;
15716;SDS011;7960;50.908;4.204;2023-08-24T14:01:55;7.27;;;4.70;;
15716;SDS011;7960;50.908;4.204;2023-08-24T14:04:22;5.57;;;4.17;;
15716;SDS011;7960;50.908;4.204;2023-08-24T14:06:49;6.03;;;4.13;;
15716;SDS011;7960;50.908;4.204;2023-08-24T14:09:17;8.43;;;3.93;;
15716;SDS011;7960;50.908;4.204;2023-08-24T14:11:44;10.27;;;4.47;;
15716;SDS011;7960;50.908;4.204;2023-08-24T14:14:12;10.07;;;4.40;;
15716;SDS011;7960;50.908;4.204;2023-08-24T14:16:39;4.80;;;3.40;;
15716;SDS011;7960;50.908;4.204;2023-08-24T14:19:06;6.07;;;3.60;;
15716;SDS011;7960;50.908;4.204;2023-08-24T14:21:35;4.80;;;3.37;;
15716;SDS011;7960;50.908;4.204;2023-08-24T14:24:02;7.00;;;3.67;;
15716;SDS011;7960;50.908;4.204;2023-08-24T14:26:30;6.30;;;4.03;;
15716;SDS011;7960;50.908;4.204;2023-08-24T14:28:57;7.47;;;4.00;;
15716;SDS011;7960;50.908;4.204;2023-08-24T14:31:25;4.77;;;3.63;;
15716;SDS011;7960;50.908;4.204;2023-08-24T14:33:53;5.47;;;3.60;;
15716;SDS011;7960;50.908;4.204;2023-08-24T14:36:20;9.23;;;3.73;;
15716;SDS011;7960;50.908;4.204;2023-08-24T14:38:48;8.47;;;4.17;;
15716;SDS011;7960;50.908;4.204;2023-08-24T14:41:16;12.77;;;4.23;;
15716;SDS011;7960;50.908;4.204;2023-08-24T14:43:45;9.63;;;4.57;;
15716;SDS011;7960;50.908;4.204;2023-08-24T14:46:13;10.03;;;4.27;;
15716;SDS011;7960;50.908;4.204;2023-08-24T14:48:40;15.97;;;5.27;;
15716;SDS011;7960;50.908;4.204;2023-08-24T14:51:07;7.50;;;4.00;;
15716;SDS011;7960;50.908;4.204;2023-08-24T14:53:37;7.03;;;4.03;;
15716;SDS011;7960;50.908;4.204;2023-08-24T14:56:04;7.77;;;4.90;;
15716;SDS011;7960;50.908;4.204;2023-08-24T14:58:31;7.43;;;3.97;;
15716;SDS011;7960;50.908;4.204;2023-08-24T15:00:59;6.40;;;4.13;;
15716;SDS011;7960;50.908;4.204;2023-08-24T15:03:26;8.03;;;4.53;;
15716;SDS011;7960;50.908;4.204;2023-08-24T15:05:57;11.87;;;4.33;;
15716;SDS011;7960;50.908;4.204;2023-08-24T15:08:24;4.97;;;3.70;;
15716;SDS011;7960;50.908;4.204;2023-08-24T15:10:53;4.50;;;3.20;;
15716;SDS011;7960;50.908;4.204;2023-08-24T15:13:21;7.30;;;4.00;;